sensor_id;sensor_type;location;lat;lon;timestamp;P1;durP1;ratioP1;P2;durP2;ratioP2
37777;SDS011;23615;51.506;7.678;2022-11-20T00:02:23;20.00;;;15.70;;
37777;SDS011;23615;51.506;7.678;2022-11-20T00:04:48;18.13;;;14.70;;
37777;SDS011;23615;51.506;7.678;2022-11-20T00:07:14;19.23;;;15.10;;
37777;SDS011;23615;51.506;7.678;2022-11-20T00:09:39;17.97;;;14.20;;
37777;SDS011;23615;51.506;7.678;2022-11-20T00:12:04;17.87;;;14.17;;
37777;SDS011;23615;51.506;7.678;2022-11-20T00:14:29;17.37;;;13.63;;
37777;SDS011;23615;51.506;7.678;2022-11-20T00:16:55;17.30;;;14.07;;
37777;SDS011;23615;51.506;7.678;2022-11-20T00:19:20;16.98;;;12.90;;
37777;SDS011;23615;51.506;7.678;2022-11-20T00:21:45;16.15;;;12.50;;
37777;SDS011;23615;51.506;7.678;2022-11-20T00:24:11;15.30;;;12.53;;
37777;SDS011;23615;51.506;7.678;2022-11-20T00:26:37;16.63;;;13.25;;
37777;SDS011;23615;51.506;7.678;2022-11-20T00:29:02;17.20;;;14.33;;
37777;SDS011;23615;51.506;7.678;2022-11-20T00:31:28;19.50;;;15.40;;
37777;SDS011;23615;51.506;7.678;2022-11-20T00:33:55;21.00;;;14.75;;
37777;SDS011;23615;51.506;7.678;2022-11-20T00:36:21;19.17;;;14.10;;
37777;SDS011;23615;51.506;7.678;2022-11-20T00:38:55;18.70;;;14.80;;
37777;SDS011;23615;51.506;7.678;2022-11-20T00:41:22;20.65;;;15.63;;
37777;SDS011;23615;51.506;7.678;2022-11-20T00:43:49;18.90;;;14.93;;
37777;SDS011;23615;51.506;7.678;2022-11-20T00:46:16;19.27;;;14.80;;
37777;SDS011;23615;51.506;7.678;2022-11-20T00:48:43;16.75;;;13.88;;
37777;SDS011;23615;51.506;7.678;2022-11-20T00:51:10;17.00;;;13.52;;
37777;SDS011;23615;51.506;7.678;2022-11-20T00:53:38;17.55;;;14.20;;
37777;SDS011;23615;51.506;7.678;2022-11-20T00:56:04;23.50;;;18.23;;
37777;SDS011;23615;51.506;7.678;2022-11-20T00:58:32;20.08;;;15.23;;
37777;SDS011;23615;51.506;7.678;2022-11-20T01:00:59;17.55;;;14.65;;
37777;SDS011;23615;51.506;7.678;2022-11-20T01:03:33;17.88;;;13.82;;
37777;SDS011;23615;51.506;7.678;2022-11-20T01:06:01;18.55;;;14.77;;
37777;SDS011;23615;51.506;7.678;2022-11-20T01:08:32;18.77;;;13.88;;
37777;SDS011;23615;51.506;7.678;2022-11-20T01:10:59;16.15;;;12.80;;
37777;SDS011;23615;51.506;7.678;2022-11-20T01:13:29;18.05;;;13.68;;
37777;SDS011;23615;51.506;7.678;2022-11-20T01:16:03;15.35;;;11.85;;
37777;SDS011;23615;51.506;7.678;2022-11-20T01:18:40;19.00;;;14.00;;
37777;SDS011;23615;51.506;7.678;2022-11-20T01:21:08;16.30;;;13.90;;
37777;SDS011;23615;51.506;7.678;2022-11-20T01:23:36;17.80;;;12.88;;
37777;SDS011;23615;51.506;7.678;2022-11-20T01:26:03;17.25;;;13.55;;
37777;SDS011;23615;51.506;7.678;2022-11-20T01:28:31;16.27;;;13.25;;
37777;SDS011;23615;51.506;7.678;2022-11-20T01:30:58;15.13;;;12.50;;
37777;SDS011;23615;51.506;7.678;2022-11-20T01:33:24;17.58;;;13.10;;
37777;SDS011;23615;51.506;7.678;2022-11-20T01:35:50;15.38;;;12.40;;
37777;SDS011;23615;51.506;7.678;2022-11-20T01:38:16;16.50;;;13.27;;
37777;SDS011;23615;51.506;7.678;2022-11-20T01:40:41;15.77;;;12.77;;
37777;SDS011;23615;51.506;7.678;2022-11-20T01:43:19;15.00;;;12.90;;
37777;SDS011;23615;51.506;7.678;2022-11-20T01:48:36;14.27;;;12.13;;
37777;SDS011;23615;51.506;7.678;2022-11-20T01:51:07;13.65;;;10.95;;
37777;SDS011;23615;51.506;7.678;2022-11-20T01:53:41;15.88;;;12.30;;
37777;SDS011;23615;51.506;7.678;2022-11-20T01:56:08;13.90;;;11.33;;
37777;SDS011;23615;51.506;7.678;2022-11-20T01:58:35;17.30;;;12.18;;
37777;SDS011;23615;51.506;7.678;2022-11-20T02:01:06;15.38;;;11.68;;
37777;SDS011;23615;51.506;7.678;2022-11-20T02:03:31;13.00;;;10.37;;
37777;SDS011;23615;51.506;7.678;2022-11-20T02:06:11;14.87;;;11.43;;
37777;SDS011;23615;51.506;7.678;2022-11-20T02:08:40;15.52;;;11.88;;
37777;SDS011;23615;51.506;7.678;2022-11-20T02:11:05;13.77;;;10.97;;
37777;SDS011;23615;51.506;7.678;2022-11-20T02:13:31;14.32;;;11.00;;
37777;SDS011;23615;51.506;7.678;2022-11-20T02:16:12;15.18;;;11.88;;
37777;SDS011;23615;51.506;7.678;2022-11-20T02:18:40;11.68;;;9.57;;
37777;SDS011;23615;51.506;7.678;2022-11-20T02:21:08;11.67;;;9.60;;
37777;SDS011;23615;51.506;7.678;2022-11-20T02:26:33;11.93;;;9.82;;
37777;SDS011;23615;51.506;7.678;2022-11-20T02:29:05;12.85;;;10.10;;
37777;SDS011;23615;51.506;7.678;2022-11-20T02:31:34;12.73;;;9.43;;
37777;SDS011;23615;51.506;7.678;2022-11-20T02:34:02;10.27;;;8.93;;
37777;SDS011;23615;51.506;7.678;2022-11-20T02:36:27;9.00;;;7.43;;
37777;SDS011;23615;51.506;7.678;2022-11-20T02:38:54;10.88;;;8.68;;
37777;SDS011;23615;51.506;7.678;2022-11-20T02:41:20;10.27;;;8.57;;
37777;SDS011;23615;51.506;7.678;2022-11-20T02:43:45;12.30;;;9.17;;
37777;SDS011;23615;51.506;7.678;2022-11-20T02:46:10;11.20;;;9.20;;
37777;SDS011;23615;51.506;7.678;2022-11-20T02:48:36;10.23;;;8.93;;
37777;SDS011;23615;51.506;7.678;2022-11-20T02:51:01;9.63;;;8.00;;
37777;SDS011;23615;51.506;7.678;2022-11-20T02:53:27;10.00;;;8.57;;
37777;SDS011;23615;51.506;7.678;2022-11-20T02:55:52;10.77;;;8.87;;
37777;SDS011;23615;51.506;7.678;2022-11-20T02:58:17;8.27;;;7.23;;
37777;SDS011;23615;51.506;7.678;2022-11-20T03:00:43;9.73;;;7.90;;
37777;SDS011;23615;51.506;7.678;2022-11-20T03:03:08;11.47;;;9.40;;
37777;SDS011;23615;51.506;7.678;2022-11-20T03:05:34;9.47;;;8.10;;
37777;SDS011;23615;51.506;7.678;2022-11-20T03:07:59;11.23;;;9.27;;
37777;SDS011;23615;51.506;7.678;2022-11-20T03:10:24;9.80;;;8.10;;
37777;SDS011;23615;51.506;7.678;2022-11-20T03:12:55;10.20;;;8.57;;
37777;SDS011;23615;51.506;7.678;2022-11-20T03:15:24;11.27;;;9.18;;
37777;SDS011;23615;51.506;7.678;2022-11-20T03:17:52;10.57;;;8.48;;
37777;SDS011;23615;51.506;7.678;2022-11-20T03:20:18;11.32;;;8.68;;
37777;SDS011;23615;51.506;7.678;2022-11-20T03:22:44;11.02;;;9.60;;
37777;SDS011;23615;51.506;7.678;2022-11-20T03:25:10;10.43;;;8.73;;
37777;SDS011;23615;51.506;7.678;2022-11-20T03:27:35;11.27;;;9.13;;
37777;SDS011;23615;51.506;7.678;2022-11-20T03:30:00;10.50;;;9.17;;
37777;SDS011;23615;51.506;7.678;2022-11-20T03:32:26;9.63;;;8.20;;
37777;SDS011;23615;51.506;7.678;2022-11-20T03:34:51;10.80;;;8.40;;
37777;SDS011;23615;51.506;7.678;2022-11-20T03:37:16;11.70;;;9.13;;
37777;SDS011;23615;51.506;7.678;2022-11-20T03:39:42;11.18;;;8.68;;
37777;SDS011;23615;51.506;7.678;2022-11-20T03:42:08;10.77;;;8.98;;
37777;SDS011;23615;51.506;7.678;2022-11-20T03:44:53;11.13;;;9.20;;
37777;SDS011;23615;51.506;7.678;2022-11-20T03:47:19;11.32;;;8.77;;
37777;SDS011;23615;51.506;7.678;2022-11-20T03:49:44;9.57;;;7.60;;
37777;SDS011;23615;51.506;7.678;2022-11-20T03:52:09;11.03;;;9.17;;
37777;SDS011;23615;51.506;7.678;2022-11-20T03:54:34;10.43;;;8.33;;
37777;SDS011;23615;51.506;7.678;2022-11-20T03:57:00;10.57;;;9.37;;
37777;SDS011;23615;51.506;7.678;2022-11-20T03:59:25;10.07;;;8.20;;
37777;SDS011;23615;51.506;7.678;2022-11-20T04:01:50;10.23;;;8.07;;
37777;SDS011;23615;51.506;7.678;2022-11-20T04:04:15;9.37;;;8.07;;
37777;SDS011;23615;51.506;7.678;2022-11-20T04:06:41;8.20;;;6.80;;
37777;SDS011;23615;51.506;7.678;2022-11-20T04:09:06;10.30;;;7.90;;
37777;SDS011;23615;51.506;7.678;2022-11-20T04:11:32;8.93;;;7.97;;
37777;SDS011;23615;51.506;7.678;2022-11-20T04:14:00;10.13;;;7.60;;
37777;SDS011;23615;51.506;7.678;2022-11-20T04:16:31;9.82;;;7.75;;
37777;SDS011;23615;51.506;7.678;2022-11-20T04:19:01;9.48;;;7.43;;
37777;SDS011;23615;51.506;7.678;2022-11-20T04:21:28;9.95;;;7.60;;
37777;SDS011;23615;51.506;7.678;2022-11-20T04:23:54;9.40;;;6.93;;
37777;SDS011;23615;51.506;7.678;2022-11-20T04:26:21;8.25;;;7.00;;
37777;SDS011;23615;51.506;7.678;2022-11-20T04:28:47;8.55;;;7.25;;
37777;SDS011;23615;51.506;7.678;2022-11-20T04:31:19;9.48;;;7.63;;
37777;SDS011;23615;51.506;7.678;2022-11-20T04:33:49;9.95;;;7.80;;
37777;SDS011;23615;51.506;7.678;2022-11-20T04:36:18;9.25;;;7.28;;
37777;SDS011;23615;51.506;7.678;2022-11-20T04:38:46;7.22;;;6.05;;
37777;SDS011;23615;51.506;7.678;2022-11-20T04:41:16;7.38;;;6.40;;
37777;SDS011;23615;51.506;7.678;2022-11-20T04:43:46;8.38;;;6.40;;
37777;SDS011;23615;51.506;7.678;2022-11-20T04:46:13;9.90;;;8.07;;
37777;SDS011;23615;51.506;7.678;2022-11-20T04:48:38;8.53;;;7.30;;
37777;SDS011;23615;51.506;7.678;2022-11-20T04:51:03;9.90;;;8.03;;
37777;SDS011;23615;51.506;7.678;2022-11-20T04:53:29;9.17;;;7.27;;
37777;SDS011;23615;51.506;7.678;2022-11-20T04:56:05;7.20;;;6.28;;
37777;SDS011;23615;51.506;7.678;2022-11-20T04:58:32;9.02;;;7.55;;
37777;SDS011;23615;51.506;7.678;2022-11-20T05:01:10;8.50;;;7.43;;
37777;SDS011;23615;51.506;7.678;2022-11-20T05:03:38;8.00;;;6.85;;
37777;SDS011;23615;51.506;7.678;2022-11-20T05:06:08;7.93;;;6.22;;
37777;SDS011;23615;51.506;7.678;2022-11-20T05:08:34;10.30;;;8.43;;
37777;SDS011;23615;51.506;7.678;2022-11-20T05:11:03;9.87;;;8.00;;
37777;SDS011;23615;51.506;7.678;2022-11-20T05:13:30;9.05;;;7.55;;
37777;SDS011;23615;51.506;7.678;2022-11-20T05:16:00;10.20;;;8.07;;
37777;SDS011;23615;51.506;7.678;2022-11-20T05:18:26;8.85;;;7.68;;
37777;SDS011;23615;51.506;7.678;2022-11-20T05:20:55;9.87;;;7.73;;
37777;SDS011;23615;51.506;7.678;2022-11-20T05:23:22;11.10;;;8.13;;
37777;SDS011;23615;51.506;7.678;2022-11-20T05:25:47;11.57;;;8.67;;
37777;SDS011;23615;51.506;7.678;2022-11-20T05:28:12;9.70;;;7.85;;
37777;SDS011;23615;51.506;7.678;2022-11-20T05:30:37;12.15;;;9.65;;
37777;SDS011;23615;51.506;7.678;2022-11-20T05:33:03;10.25;;;8.45;;
37777;SDS011;23615;51.506;7.678;2022-11-20T05:35:28;9.80;;;7.20;;
37777;SDS011;23615;51.506;7.678;2022-11-20T05:37:53;10.02;;;8.48;;
37777;SDS011;23615;51.506;7.678;2022-11-20T05:40:18;10.65;;;8.90;;
37777;SDS011;23615;51.506;7.678;2022-11-20T05:42:44;11.20;;;9.27;;
37777;SDS011;23615;51.506;7.678;2022-11-20T05:45:09;10.00;;;8.53;;
37777;SDS011;23615;51.506;7.678;2022-11-20T05:47:34;11.67;;;9.70;;
37777;SDS011;23615;51.506;7.678;2022-11-20T05:50:00;10.33;;;8.70;;
37777;SDS011;23615;51.506;7.678;2022-11-20T05:52:28;9.77;;;8.40;;
37777;SDS011;23615;51.506;7.678;2022-11-20T05:54:54;10.00;;;8.07;;
37777;SDS011;23615;51.506;7.678;2022-11-20T05:57:19;10.38;;;8.90;;
37777;SDS011;23615;51.506;7.678;2022-11-20T05:59:44;10.90;;;8.00;;
37777;SDS011;23615;51.506;7.678;2022-11-20T06:02:10;10.23;;;8.17;;
37777;SDS011;23615;51.506;7.678;2022-11-20T06:04:35;9.83;;;8.33;;
37777;SDS011;23615;51.506;7.678;2022-11-20T06:07:00;8.77;;;7.50;;
37777;SDS011;23615;51.506;7.678;2022-11-20T06:09:26;9.53;;;8.50;;
37777;SDS011;23615;51.506;7.678;2022-11-20T06:11:51;10.67;;;8.47;;
37777;SDS011;23615;51.506;7.678;2022-11-20T06:14:16;13.03;;;9.07;;
37777;SDS011;23615;51.506;7.678;2022-11-20T06:16:42;9.10;;;7.33;;
37777;SDS011;23615;51.506;7.678;2022-11-20T06:19:07;8.23;;;6.70;;
37777;SDS011;23615;51.506;7.678;2022-11-20T06:21:32;9.53;;;7.53;;
37777;SDS011;23615;51.506;7.678;2022-11-20T06:23:57;7.60;;;6.50;;
37777;SDS011;23615;51.506;7.678;2022-11-20T06:26:23;8.67;;;7.37;;
37777;SDS011;23615;51.506;7.678;2022-11-20T06:28:50;8.97;;;7.30;;
37777;SDS011;23615;51.506;7.678;2022-11-20T06:31:18;8.13;;;7.18;;
37777;SDS011;23615;51.506;7.678;2022-11-20T06:33:45;9.43;;;7.40;;
37777;SDS011;23615;51.506;7.678;2022-11-20T06:36:11;9.27;;;7.47;;
37777;SDS011;23615;51.506;7.678;2022-11-20T06:38:39;9.90;;;8.25;;
37777;SDS011;23615;51.506;7.678;2022-11-20T06:41:05;10.77;;;8.50;;
37777;SDS011;23615;51.506;7.678;2022-11-20T06:43:35;11.55;;;9.30;;
37777;SDS011;23615;51.506;7.678;2022-11-20T06:46:00;9.52;;;8.07;;
37777;SDS011;23615;51.506;7.678;2022-11-20T06:48:26;9.85;;;8.07;;
37777;SDS011;23615;51.506;7.678;2022-11-20T06:50:52;10.57;;;8.25;;
37777;SDS011;23615;51.506;7.678;2022-11-20T06:53:17;10.17;;;8.97;;
37777;SDS011;23615;51.506;7.678;2022-11-20T06:55:44;12.48;;;9.90;;
37777;SDS011;23615;51.506;7.678;2022-11-20T06:58:10;10.65;;;8.15;;
37777;SDS011;23615;51.506;7.678;2022-11-20T07:00:36;9.60;;;7.57;;
37777;SDS011;23615;51.506;7.678;2022-11-20T07:03:07;10.03;;;7.97;;
37777;SDS011;23615;51.506;7.678;2022-11-20T07:05:34;10.32;;;8.50;;
37777;SDS011;23615;51.506;7.678;2022-11-20T07:08:00;8.27;;;7.22;;
37777;SDS011;23615;51.506;7.678;2022-11-20T07:10:26;10.55;;;7.78;;
37777;SDS011;23615;51.506;7.678;2022-11-20T07:12:52;9.43;;;7.53;;
37777;SDS011;23615;51.506;7.678;2022-11-20T07:15:18;9.25;;;7.40;;
37777;SDS011;23615;51.506;7.678;2022-11-20T07:17:44;10.83;;;8.20;;
37777;SDS011;23615;51.506;7.678;2022-11-20T07:20:10;9.77;;;8.13;;
37777;SDS011;23615;51.506;7.678;2022-11-20T07:22:36;10.48;;;8.30;;
37777;SDS011;23615;51.506;7.678;2022-11-20T07:25:02;8.80;;;6.90;;
37777;SDS011;23615;51.506;7.678;2022-11-20T07:27:28;9.17;;;6.93;;
37777;SDS011;23615;51.506;7.678;2022-11-20T07:29:54;9.25;;;7.13;;
37777;SDS011;23615;51.506;7.678;2022-11-20T07:32:20;12.15;;;9.00;;
37777;SDS011;23615;51.506;7.678;2022-11-20T07:34:45;10.17;;;7.90;;
37777;SDS011;23615;51.506;7.678;2022-11-20T07:37:11;9.20;;;7.72;;
37777;SDS011;23615;51.506;7.678;2022-11-20T07:39:36;8.10;;;6.82;;
37777;SDS011;23615;51.506;7.678;2022-11-20T07:42:03;9.15;;;7.38;;
37777;SDS011;23615;51.506;7.678;2022-11-20T07:44:29;11.50;;;9.13;;
37777;SDS011;23615;51.506;7.678;2022-11-20T07:46:54;9.00;;;7.63;;
37777;SDS011;23615;51.506;7.678;2022-11-20T07:49:19;10.17;;;8.30;;
37777;SDS011;23615;51.506;7.678;2022-11-20T07:51:44;11.30;;;9.03;;
37777;SDS011;23615;51.506;7.678;2022-11-20T07:54:10;12.70;;;9.10;;
37777;SDS011;23615;51.506;7.678;2022-11-20T07:56:35;10.77;;;9.00;;
37777;SDS011;23615;51.506;7.678;2022-11-20T07:59:00;11.33;;;9.10;;
37777;SDS011;23615;51.506;7.678;2022-11-20T08:01:25;11.07;;;8.43;;
37777;SDS011;23615;51.506;7.678;2022-11-20T08:03:51;10.87;;;8.73;;
37777;SDS011;23615;51.506;7.678;2022-11-20T08:06:16;12.93;;;9.83;;
37777;SDS011;23615;51.506;7.678;2022-11-20T08:08:42;11.43;;;9.60;;
37777;SDS011;23615;51.506;7.678;2022-11-20T08:11:07;12.13;;;9.02;;
37777;SDS011;23615;51.506;7.678;2022-11-20T08:13:51;9.35;;;8.38;;
37777;SDS011;23615;51.506;7.678;2022-11-20T08:16:35;9.13;;;7.85;;
37777;SDS011;23615;51.506;7.678;2022-11-20T08:19:00;8.83;;;7.50;;
37777;SDS011;23615;51.506;7.678;2022-11-20T08:21:26;8.70;;;7.47;;
37777;SDS011;23615;51.506;7.678;2022-11-20T08:23:51;11.17;;;8.83;;
37777;SDS011;23615;51.506;7.678;2022-11-20T08:26:16;12.33;;;9.60;;
37777;SDS011;23615;51.506;7.678;2022-11-20T08:28:41;11.33;;;9.63;;
37777;SDS011;23615;51.506;7.678;2022-11-20T08:31:07;13.07;;;10.93;;
37777;SDS011;23615;51.506;7.678;2022-11-20T08:33:32;12.50;;;10.97;;
37777;SDS011;23615;51.506;7.678;2022-11-20T08:35:58;12.17;;;9.90;;
37777;SDS011;23615;51.506;7.678;2022-11-20T08:38:28;11.93;;;9.48;;
37777;SDS011;23615;51.506;7.678;2022-11-20T08:40:57;11.53;;;8.93;;
37777;SDS011;23615;51.506;7.678;2022-11-20T08:43:41;9.57;;;7.93;;
37777;SDS011;23615;51.506;7.678;2022-11-20T08:46:07;8.30;;;7.40;;
37777;SDS011;23615;51.506;7.678;2022-11-20T08:48:32;11.13;;;9.10;;
37777;SDS011;23615;51.506;7.678;2022-11-20T08:50:58;10.27;;;8.03;;
37777;SDS011;23615;51.506;7.678;2022-11-20T08:53:24;13.93;;;11.35;;
37777;SDS011;23615;51.506;7.678;2022-11-20T08:55:49;12.33;;;9.37;;
37777;SDS011;23615;51.506;7.678;2022-11-20T08:58:15;10.77;;;8.97;;
37777;SDS011;23615;51.506;7.678;2022-11-20T09:00:40;10.87;;;7.90;;
37777;SDS011;23615;51.506;7.678;2022-11-20T09:03:05;16.67;;;14.87;;
37777;SDS011;23615;51.506;7.678;2022-11-20T09:05:30;14.17;;;11.77;;
37777;SDS011;23615;51.506;7.678;2022-11-20T09:07:56;12.47;;;10.13;;
37777;SDS011;23615;51.506;7.678;2022-11-20T09:10:22;13.32;;;10.20;;
37777;SDS011;23615;51.506;7.678;2022-11-20T09:12:50;11.83;;;10.10;;
37777;SDS011;23615;51.506;7.678;2022-11-20T09:15:16;11.32;;;9.50;;
37777;SDS011;23615;51.506;7.678;2022-11-20T09:17:42;12.40;;;10.60;;
37777;SDS011;23615;51.506;7.678;2022-11-20T09:20:14;13.38;;;10.38;;
37777;SDS011;23615;51.506;7.678;2022-11-20T09:22:41;10.50;;;8.65;;
37777;SDS011;23615;51.506;7.678;2022-11-20T09:25:06;11.15;;;9.02;;
37777;SDS011;23615;51.506;7.678;2022-11-20T09:27:32;15.70;;;11.35;;
37777;SDS011;23615;51.506;7.678;2022-11-20T09:29:57;14.13;;;11.60;;
37777;SDS011;23615;51.506;7.678;2022-11-20T09:32:22;15.07;;;12.30;;
37777;SDS011;23615;51.506;7.678;2022-11-20T09:34:47;13.87;;;11.47;;
37777;SDS011;23615;51.506;7.678;2022-11-20T09:37:13;12.57;;;10.57;;
37777;SDS011;23615;51.506;7.678;2022-11-20T09:39:38;14.63;;;11.70;;
37777;SDS011;23615;51.506;7.678;2022-11-20T09:42:14;10.97;;;9.03;;
37777;SDS011;23615;51.506;7.678;2022-11-20T09:44:59;12.88;;;11.20;;
37777;SDS011;23615;51.506;7.678;2022-11-20T09:50:36;10.38;;;8.75;;
37777;SDS011;23615;51.506;7.678;2022-11-20T09:56:06;11.73;;;9.90;;
37777;SDS011;23615;51.506;7.678;2022-11-20T09:58:40;9.83;;;8.50;;
37777;SDS011;23615;51.506;7.678;2022-11-20T10:01:20;11.30;;;8.95;;
37777;SDS011;23615;51.506;7.678;2022-11-20T10:06:23;10.55;;;8.93;;
37777;SDS011;23615;51.506;7.678;2022-11-20T10:11:59;9.68;;;7.97;;
37777;SDS011;23615;51.506;7.678;2022-11-20T10:17:16;8.02;;;7.22;;
37777;SDS011;23615;51.506;7.678;2022-11-20T10:25:39;8.70;;;7.65;;
37777;SDS011;23615;51.506;7.678;2022-11-20T10:28:10;10.73;;;9.05;;
37777;SDS011;23615;51.506;7.678;2022-11-20T10:30:43;9.60;;;7.70;;
37777;SDS011;23615;51.506;7.678;2022-11-20T10:33:23;8.90;;;8.00;;
37777;SDS011;23615;51.506;7.678;2022-11-20T10:38:24;10.70;;;9.03;;
37777;SDS011;23615;51.506;7.678;2022-11-20T10:40:59;13.47;;;10.77;;
37777;SDS011;23615;51.506;7.678;2022-11-20T10:43:46;10.68;;;9.57;;
37777;SDS011;23615;51.506;7.678;2022-11-20T10:46:20;11.43;;;9.50;;
37777;SDS011;23615;51.506;7.678;2022-11-20T10:48:47;8.85;;;7.55;;
37777;SDS011;23615;51.506;7.678;2022-11-20T10:53:47;13.40;;;10.65;;
37777;SDS011;23615;51.506;7.678;2022-11-20T11:01:39;13.27;;;11.60;;
37777;SDS011;23615;51.506;7.678;2022-11-20T11:04:08;15.00;;;11.50;;
37777;SDS011;23615;51.506;7.678;2022-11-20T11:06:56;15.35;;;12.20;;
37777;SDS011;23615;51.506;7.678;2022-11-20T11:09:32;14.90;;;11.63;;
37777;SDS011;23615;51.506;7.678;2022-11-20T11:11:59;12.27;;;10.52;;
37777;SDS011;23615;51.506;7.678;2022-11-20T11:14:25;14.70;;;11.20;;
37777;SDS011;23615;51.506;7.678;2022-11-20T11:16:51;14.70;;;11.57;;
37777;SDS011;23615;51.506;7.678;2022-11-20T11:19:20;14.70;;;11.75;;
37777;SDS011;23615;51.506;7.678;2022-11-20T11:21:47;13.75;;;10.93;;
37777;SDS011;23615;51.506;7.678;2022-11-20T11:24:46;13.85;;;11.05;;
37777;SDS011;23615;51.506;7.678;2022-11-20T11:27:16;12.97;;;10.53;;
37777;SDS011;23615;51.506;7.678;2022-11-20T11:29:42;13.23;;;10.95;;
37777;SDS011;23615;51.506;7.678;2022-11-20T11:32:10;13.75;;;10.48;;
37777;SDS011;23615;51.506;7.678;2022-11-20T11:34:38;12.30;;;10.37;;
37777;SDS011;23615;51.506;7.678;2022-11-20T11:37:03;13.68;;;11.38;;
37777;SDS011;23615;51.506;7.678;2022-11-20T11:39:35;11.95;;;10.60;;
37777;SDS011;23615;51.506;7.678;2022-11-20T11:42:04;13.10;;;10.48;;
37777;SDS011;23615;51.506;7.678;2022-11-20T11:44:33;12.18;;;10.40;;
37777;SDS011;23615;51.506;7.678;2022-11-20T11:50:02;10.75;;;9.65;;
37777;SDS011;23615;51.506;7.678;2022-11-20T11:52:34;12.70;;;10.15;;
37777;SDS011;23615;51.506;7.678;2022-11-20T11:55:12;10.47;;;8.77;;
37777;SDS011;23615;51.506;7.678;2022-11-20T11:57:46;9.15;;;7.30;;
37777;SDS011;23615;51.506;7.678;2022-11-20T12:00:17;10.65;;;8.10;;
37777;SDS011;23615;51.506;7.678;2022-11-20T12:05:27;8.43;;;7.20;;
37777;SDS011;23615;51.506;7.678;2022-11-20T12:15:59;9.38;;;8.20;;
37777;SDS011;23615;51.506;7.678;2022-11-20T12:18:26;9.25;;;8.07;;
37777;SDS011;23615;51.506;7.678;2022-11-20T12:20:56;9.82;;;7.55;;
37777;SDS011;23615;51.506;7.678;2022-11-20T12:23:53;9.27;;;7.73;;
37777;SDS011;23615;51.506;7.678;2022-11-20T12:34:31;7.93;;;6.43;;
37777;SDS011;23615;51.506;7.678;2022-11-20T12:39:33;9.55;;;8.13;;
37777;SDS011;23615;51.506;7.678;2022-11-20T12:48:02;9.50;;;7.70;;
37777;SDS011;23615;51.506;7.678;2022-11-20T12:53:40;8.90;;;6.63;;
37777;SDS011;23615;51.506;7.678;2022-11-20T13:02:03;8.15;;;6.43;;
37777;SDS011;23615;51.506;7.678;2022-11-20T13:07:26;9.45;;;7.80;;
37777;SDS011;23615;51.506;7.678;2022-11-20T13:09:53;9.05;;;6.90;;
37777;SDS011;23615;51.506;7.678;2022-11-20T13:12:26;7.17;;;5.83;;
37777;SDS011;23615;51.506;7.678;2022-11-20T13:15:05;7.72;;;5.97;;
37777;SDS011;23615;51.506;7.678;2022-11-20T13:17:45;6.10;;;4.85;;
37777;SDS011;23615;51.506;7.678;2022-11-20T13:20:17;6.32;;;5.15;;
37777;SDS011;23615;51.506;7.678;2022-11-20T13:22:46;5.35;;;4.85;;
37777;SDS011;23615;51.506;7.678;2022-11-20T13:25:23;6.87;;;5.20;;
37777;SDS011;23615;51.506;7.678;2022-11-20T13:27:57;12.68;;;9.27;;
37777;SDS011;23615;51.506;7.678;2022-11-20T13:30:25;10.93;;;8.43;;
37777;SDS011;23615;51.506;7.678;2022-11-20T13:33:05;9.75;;;7.60;;
37777;SDS011;23615;51.506;7.678;2022-11-20T13:35:37;8.20;;;7.00;;
37777;SDS011;23615;51.506;7.678;2022-11-20T13:38:13;8.90;;;7.63;;
37777;SDS011;23615;51.506;7.678;2022-11-20T13:40:52;9.52;;;7.68;;
37777;SDS011;23615;51.506;7.678;2022-11-20T13:43:22;13.57;;;10.77;;
37777;SDS011;23615;51.506;7.678;2022-11-20T13:45:55;10.43;;;8.87;;
37777;SDS011;23615;51.506;7.678;2022-11-20T13:48:26;9.43;;;7.50;;
37777;SDS011;23615;51.506;7.678;2022-11-20T13:50:59;14.75;;;11.75;;
37777;SDS011;23615;51.506;7.678;2022-11-20T13:53:43;12.38;;;10.68;;
37777;SDS011;23615;51.506;7.678;2022-11-20T14:01:48;11.63;;;9.73;;
37777;SDS011;23615;51.506;7.678;2022-11-20T14:04:15;11.80;;;10.60;;
37777;SDS011;23615;51.506;7.678;2022-11-20T14:06:51;9.73;;;8.50;;
37777;SDS011;23615;51.506;7.678;2022-11-20T14:09:30;9.70;;;8.13;;
37777;SDS011;23615;51.506;7.678;2022-11-20T14:11:57;9.70;;;8.05;;
37777;SDS011;23615;51.506;7.678;2022-11-20T14:14:26;9.10;;;8.02;;
37777;SDS011;23615;51.506;7.678;2022-11-20T14:17:04;10.65;;;9.00;;
37777;SDS011;23615;51.506;7.678;2022-11-20T14:19:31;11.37;;;9.63;;
37777;SDS011;23615;51.506;7.678;2022-11-20T14:27:41;7.95;;;6.43;;
37777;SDS011;23615;51.506;7.678;2022-11-20T14:30:27;11.05;;;8.63;;
37777;SDS011;23615;51.506;7.678;2022-11-20T14:32:56;9.85;;;7.68;;
37777;SDS011;23615;51.506;7.678;2022-11-20T14:35:27;8.77;;;7.45;;
37777;SDS011;23615;51.506;7.678;2022-11-20T14:37:54;10.45;;;7.40;;
37777;SDS011;23615;51.506;7.678;2022-11-20T14:40:30;9.07;;;7.13;;
37777;SDS011;23615;51.506;7.678;2022-11-20T14:42:59;7.70;;;6.63;;
37777;SDS011;23615;51.506;7.678;2022-11-20T14:45:25;9.43;;;7.97;;
37777;SDS011;23615;51.506;7.678;2022-11-20T14:47:52;11.50;;;8.85;;
37777;SDS011;23615;51.506;7.678;2022-11-20T14:50:23;10.20;;;7.68;;
37777;SDS011;23615;51.506;7.678;2022-11-20T14:55:25;10.60;;;8.80;;
37777;SDS011;23615;51.506;7.678;2022-11-20T14:57:57;10.10;;;7.93;;
37777;SDS011;23615;51.506;7.678;2022-11-20T15:00:42;9.98;;;8.27;;
37777;SDS011;23615;51.506;7.678;2022-11-20T15:03:20;10.15;;;7.93;;
37777;SDS011;23615;51.506;7.678;2022-11-20T15:05:47;9.00;;;7.50;;
37777;SDS011;23615;51.506;7.678;2022-11-20T15:08:14;12.18;;;9.75;;
37777;SDS011;23615;51.506;7.678;2022-11-20T15:10:48;10.77;;;8.35;;
37777;SDS011;23615;51.506;7.678;2022-11-20T15:13:18;10.93;;;8.63;;
37777;SDS011;23615;51.506;7.678;2022-11-20T15:15:50;11.27;;;8.87;;
37777;SDS011;23615;51.506;7.678;2022-11-20T15:20:55;9.67;;;7.90;;
37777;SDS011;23615;51.506;7.678;2022-11-20T15:23:22;10.33;;;8.70;;
37777;SDS011;23615;51.506;7.678;2022-11-20T15:25:47;11.20;;;8.77;;
37777;SDS011;23615;51.506;7.678;2022-11-20T15:28:18;11.15;;;8.80;;
37777;SDS011;23615;51.506;7.678;2022-11-20T15:30:46;12.00;;;9.00;;
37777;SDS011;23615;51.506;7.678;2022-11-20T15:33:13;11.15;;;9.38;;
37777;SDS011;23615;51.506;7.678;2022-11-20T15:35:39;9.27;;;8.20;;
37777;SDS011;23615;51.506;7.678;2022-11-20T15:38:04;11.93;;;9.17;;
37777;SDS011;23615;51.506;7.678;2022-11-20T15:40:30;12.07;;;9.40;;
37777;SDS011;23615;51.506;7.678;2022-11-20T15:42:56;10.43;;;8.98;;
37777;SDS011;23615;51.506;7.678;2022-11-20T15:45:27;11.88;;;9.75;;
37777;SDS011;23615;51.506;7.678;2022-11-20T15:47:55;13.90;;;11.20;;
37777;SDS011;23615;51.506;7.678;2022-11-20T15:50:20;13.13;;;10.80;;
37777;SDS011;23615;51.506;7.678;2022-11-20T15:52:46;14.30;;;10.55;;
37777;SDS011;23615;51.506;7.678;2022-11-20T15:55:12;16.00;;;13.47;;
37777;SDS011;23615;51.506;7.678;2022-11-20T15:57:37;13.73;;;11.30;;
37777;SDS011;23615;51.506;7.678;2022-11-20T16:00:02;11.60;;;9.10;;
37777;SDS011;23615;51.506;7.678;2022-11-20T16:02:28;13.45;;;10.80;;
37777;SDS011;23615;51.506;7.678;2022-11-20T16:04:53;12.93;;;10.23;;
37777;SDS011;23615;51.506;7.678;2022-11-20T16:07:19;12.10;;;9.97;;
37777;SDS011;23615;51.506;7.678;2022-11-20T16:09:44;14.47;;;12.17;;
37777;SDS011;23615;51.506;7.678;2022-11-20T16:12:09;16.00;;;11.47;;
37777;SDS011;23615;51.506;7.678;2022-11-20T16:14:55;14.80;;;11.68;;
37777;SDS011;23615;51.506;7.678;2022-11-20T16:17:38;15.73;;;10.97;;
37777;SDS011;23615;51.506;7.678;2022-11-20T16:20:13;12.25;;;9.85;;